WXM80 ListenWXM80 Stop

You find our weather info also at:

UK Metoffice

WeatherCloud

Weather Underground

Northeastern Weather Network

AWEKAS

Citizen Weather Observer Program (CWOP)

HAMweather, WeatherForYou, PWS Weather


Weather Underground History page Text

Daily Summary for October 13, 2017 Units:  English    Metric   Both
« Previous Day
Next Day »
Daily Weekly Monthly Yearly Custom
  High: Low: Average:
Temperature: 70.8 °F 54.3 °F 60.6 °F
Dew Point: 59.2 °F 48.8 °F 55 °F
Humidity: 92 % 60 % 82 %
Wind Speed: 9.4 mph 0.0 mph 2.7 mph
Wind Gust: 15.0 mph - -
Wind:- - East
Pressure: 30.41 in 30.25 in -
Precipitation: 0.00 in    
Historical Graphs
 
 
Tabular Data for October 13, 2017
Time Temperature Dew Point Pressure Wind Wind Speed Wind Gust Humidity Rainfall Rate (Hourly)
00:01 55.9 °F 49.5 °F 30.35 in East 0.7 mph 3.5 mph 79 % 0.00 in
00:06 55.7 °F 48.9 °F 30.35 in SSE 0.7 mph 5.8 mph 78 % 0.00 in
00:11 55.5 °F 49.1 °F 30.35 in ESE 1.8 mph 3.0 mph 79 % 0.00 in
00:16 55.4 °F 49.0 °F 30.39 in SE 1.3 mph 3.5 mph 79 % 0.00 in
00:21 55.2 °F 48.8 °F 30.37 in SE 1.8 mph 5.8 mph 79 % 0.00 in
00:26 55.1 °F 49.0 °F 30.39 in ESE 1.0 mph 4.6 mph 80 % 0.00 in
00:31 55.0 °F 48.9 °F 30.36 in SE 0.6 mph 2.3 mph 80 % 0.00 in
00:36 54.9 °F 49.5 °F 30.40 in ESE 1.3 mph 2.3 mph 82 % 0.00 in
00:41 54.8 °F 49.7 °F 30.40 in ENE 2.1 mph 6.9 mph 83 % 0.00 in
00:46 54.8 °F 49.7 °F 30.40 in ENE 0.9 mph 2.3 mph 83 % 0.00 in
00:51 54.8 °F 49.7 °F 30.40 in East 1.8 mph 3.5 mph 83 % 0.00 in
00:56 54.9 °F 49.8 °F 30.36 in ESE 0.4 mph 2.0 mph 83 % 0.00 in
01:01 54.8 °F 49.7 °F 30.37 in East 1.1 mph 2.3 mph 83 % 0.00 in
01:06 54.9 °F 49.8 °F 30.37 in SSE 0.9 mph 7.0 mph 83 % 0.00 in
01:11 54.8 °F 49.7 °F 30.37 in SE 2.1 mph 3.5 mph 83 % 0.00 in
01:16 54.8 °F 49.7 °F 30.37 in SE 1.8 mph 3.5 mph 83 % 0.00 in
01:21 54.8 °F 49.7 °F 30.37 in ESE 1.1 mph 4.6 mph 83 % 0.00 in
01:26 54.6 °F 49.5 °F 30.37 in Calm   2.3 mph 83 % 0.00 in
01:27 54.7 °F 49.6 °F 30.36 in ESE 0.1 mph 1.0 mph 83 % 0.00 in
01:32 54.6 °F 49.9 °F 30.37 in SE 1.2 mph 2.3 mph 84 % 0.00 in
01:37 54.5 °F 49.8 °F 30.37 in ESE 0.6 mph 2.3 mph 84 % 0.00 in
01:42 54.5 °F 49.8 °F 30.37 in ESE 0.7 mph 2.0 mph 84 % 0.00 in
01:47 54.4 °F 49.7 °F 30.37 in SE 0.2 mph 1.2 mph 84 % 0.00 in
01:52 54.4 °F 49.7 °F 30.36 in ESE 1.0 mph 2.3 mph 84 % 0.00 in
01:57 54.4 °F 50.0 °F 30.41 in East 0.5 mph 1.2 mph 85 % 0.00 in
02:02 54.3 °F 49.9 °F 30.40 in East 0.4 mph 1.2 mph 85 % 0.00 in
02:07 54.3 °F 49.9 °F 30.37 in East 1.1 mph 2.3 mph 85 % 0.00 in
02:12 54.3 °F 49.9 °F 30.36 in East 1.2 mph 2.3 mph 85 % 0.00 in
02:17 54.3 °F 49.9 °F 30.37 in East 1.4 mph 2.3 mph 85 % 0.00 in
02:22 54.4 °F 50.3 °F 30.36 in East 1.7 mph 3.5 mph 86 % 0.00 in
02:27 54.5 °F 50.4 °F 30.36 in East 1.8 mph 3.5 mph 86 % 0.00 in
02:32 54.6 °F 50.8 °F 30.36 in East 1.6 mph 2.3 mph 87 % 0.00 in
02:37 54.7 °F 50.9 °F 30.36 in East 1.4 mph 3.5 mph 87 % 0.00 in
02:43 54.8 °F 51.0 °F 30.35 in ENE 1.1 mph 3.5 mph 87 % 0.00 in
02:48 55.0 °F 51.2 °F 30.36 in East 1.3 mph 2.3 mph 87 % 0.00 in
02:53 55.0 °F 51.2 °F 30.36 in East 1.8 mph 3.5 mph 87 % 0.00 in
02:58 55.2 °F 51.4 °F 30.36 in East 3.2 mph 5.0 mph 87 % 0.00 in
03:03 55.4 °F 51.6 °F 30.36 in ENE 4.9 mph 8.0 mph 87 % 0.00 in
03:08 55.7 °F 52.2 °F 30.36 in ENE 5.8 mph 11.5 mph 88 % 0.00 in
03:13 55.8 °F 52.0 °F 30.35 in East 3.3 mph 5.8 mph 87 % 0.00 in
03:18 55.9 °F 52.1 °F 30.35 in East 6.5 mph 11.0 mph 87 % 0.00 in
03:23 56.0 °F 52.2 °F 30.35 in ENE 7.7 mph 15.0 mph 87 % 0.00 in
03:28 56.0 °F 52.2 °F 30.36 in ENE 6.6 mph 10.4 mph 87 % 0.00 in
03:33 56.1 °F 52.3 °F 30.35 in East 4.9 mph 10.0 mph 87 % 0.00 in
03:38 56.1 °F 52.3 °F 30.35 in ENE 9.4 mph 13.8 mph 87 % 0.00 in
03:43 56.0 °F 51.9 °F 30.36 in East 6.9 mph 11.5 mph 86 % 0.00 in
03:48 55.9 °F 51.8 °F 30.36 in ENE 7.9 mph 11.5 mph 86 % 0.00 in
03:53 55.8 °F 51.7 °F 30.35 in ENE 7.5 mph 11.5 mph 86 % 0.00 in
03:58 55.7 °F 51.6 °F 30.36 in NE 7.6 mph 13.8 mph 86 % 0.00 in
04:03 55.7 °F 51.9 °F 30.36 in ENE 8.3 mph 11.5 mph 87 % 0.00 in
04:08 55.7 °F 51.6 °F 30.35 in ENE 8.2 mph 15.0 mph 86 % 0.00 in
04:13 55.7 °F 51.9 °F 30.36 in ENE 4.9 mph 8.0 mph 87 % 0.00 in
04:18 55.7 °F 51.9 °F 30.36 in ENE 8.0 mph 12.7 mph 87 % 0.00 in
04:23 55.7 °F 51.6 °F 30.36 in ENE 6.1 mph 11.5 mph 86 % 0.00 in
04:28 55.7 °F 51.9 °F 30.36 in East 6.2 mph 9.2 mph 87 % 0.00 in
04:34 55.7 °F 51.9 °F 30.36 in NE 7.2 mph 12.7 mph 87 % 0.00 in
04:39 55.7 °F 51.9 °F 30.36 in ENE 5.1 mph 10.4 mph 87 % 0.00 in
04:44 55.7 °F 51.9 °F 30.36 in ENE 3.9 mph 8.1 mph 87 % 0.00 in
04:49 55.7 °F 52.2 °F 30.36 in ENE 4.1 mph 9.2 mph 88 % 0.00 in
04:54 55.7 °F 51.9 °F 30.40 in ENE 5.7 mph 11.5 mph 87 % 0.00 in
04:59 55.7 °F 51.9 °F 30.40 in ENE 6.2 mph 11.5 mph 87 % 0.00 in
05:04 55.7 °F 52.2 °F 30.41 in ENE 3.9 mph 6.9 mph 88 % 0.00 in
05:09 55.8 °F 52.3 °F 30.37 in ENE 4.5 mph 6.9 mph 88 % 0.00 in
05:14 55.8 °F 52.0 °F 30.37 in ENE 7.7 mph 11.5 mph 87 % 0.00 in
05:19 55.8 °F 52.3 °F 30.37 in ENE 4.1 mph 13.0 mph 88 % 0.00 in
05:24 55.9 °F 52.4 °F 30.36 in ENE 5.0 mph 8.1 mph 88 % 0.00 in
05:29 55.9 °F 52.4 °F 30.41 in ENE 3.6 mph 6.9 mph 88 % 0.00 in
05:34 56.0 °F 52.5 °F 30.40 in East 2.2 mph 4.6 mph 88 % 0.00 in
05:39 56.0 °F 52.5 °F 30.37 in East 3.3 mph 6.9 mph 88 % 0.00 in
05:44 56.1 °F 52.6 °F 30.37 in ENE 3.1 mph 10.4 mph 88 % 0.00 in
05:49 56.2 °F 52.7 °F 30.36 in NE 4.1 mph 8.1 mph 88 % 0.00 in
05:54 56.2 °F 52.7 °F 30.36 in ENE 5.8 mph 9.2 mph 88 % 0.00 in
05:59 56.2 °F 52.7 °F 30.37 in ENE 3.5 mph 8.1 mph 88 % 0.00 in
06:04 56.2 °F 52.7 °F 30.39 in ENE 4.0 mph 10.4 mph 88 % 0.00 in
06:09 56.3 °F 52.8 °F 30.37 in ENE 5.5 mph 11.0 mph 88 % 0.00 in
06:14 56.3 °F 52.8 °F 30.39 in ENE 6.4 mph 9.2 mph 88 % 0.00 in
06:19 56.3 °F 52.8 °F 30.37 in ENE 5.5 mph 9.2 mph 88 % 0.00 in
06:24 56.4 °F 52.9 °F 30.37 in East 6.4 mph 11.5 mph 88 % 0.00 in
06:30 56.3 °F 52.8 °F 30.37 in East 4.2 mph 8.1 mph 88 % 0.00 in
06:35 56.4 °F 52.9 °F 30.37 in East 6.8 mph 10.4 mph 88 % 0.00 in
06:40 56.4 °F 52.9 °F 30.37 in ENE 7.8 mph 12.0 mph 88 % 0.00 in
06:45 56.4 °F 52.9 °F 30.37 in ENE 5.3 mph 9.2 mph 88 % 0.00 in
06:50 56.4 °F 52.9 °F 30.37 in East 2.7 mph 5.8 mph 88 % 0.00 in
06:55 56.4 °F 53.2 °F 30.37 in ENE 5.5 mph 13.0 mph 89 % 0.00 in
07:00 56.4 °F 53.2 °F 30.37 in East 5.4 mph 9.2 mph 89 % 0.00 in
07:05 56.3 °F 52.8 °F 30.36 in East 6.7 mph 10.4 mph 88 % 0.00 in
07:10 56.2 °F 52.7 °F 30.37 in ENE 7.9 mph 11.5 mph 88 % 0.00 in
07:15 56.2 °F 52.7 °F 30.37 in ENE 5.6 mph 10.4 mph 88 % 0.00 in
07:20 56.1 °F 52.9 °F 30.37 in ENE 8.1 mph 13.8 mph 89 % 0.00 in
07:25 56.1 °F 52.9 °F 30.37 in ENE 7.8 mph 11.5 mph 89 % 0.00 in
07:30 56.1 °F 52.9 °F 30.38 in East 6.9 mph 11.5 mph 89 % 0.00 in
07:35 56.2 °F 53.0 °F 30.38 in ENE 6.8 mph 11.5 mph 89 % 0.00 in
07:40 56.2 °F 53.0 °F 30.38 in NE 4.9 mph 9.2 mph 89 % 0.00 in
07:45 56.2 °F 53.0 °F 30.37 in ENE 8.7 mph 12.7 mph 89 % 0.00 in
07:50 56.2 °F 53.0 °F 30.38 in ENE 6.3 mph 10.4 mph 89 % 0.00 in
07:55 56.2 °F 53.0 °F 30.38 in ENE 6.4 mph 10.4 mph 89 % 0.00 in
08:00 56.2 °F 53.0 °F 30.38 in ENE 6.0 mph 11.5 mph 89 % 0.00 in
08:05 56.2 °F 53.3 °F 30.38 in East 6.7 mph 11.5 mph 90 % 0.00 in
08:10 56.2 °F 53.0 °F 30.39 in ENE 5.3 mph 9.2 mph 89 % 0.00 in
08:15 56.2 °F 53.0 °F 30.39 in ENE 6.5 mph 9.2 mph 89 % 0.00 in
08:20 56.1 °F 52.9 °F 30.39 in ENE 8.4 mph 11.5 mph 89 % 0.00 in
08:25 56.1 °F 52.9 °F 30.39 in ENE 5.4 mph 10.4 mph 89 % 0.00 in
08:30 56.1 °F 52.9 °F 30.39 in ENE 7.9 mph 11.5 mph 89 % 0.00 in
08:35 56.0 °F 52.8 °F 30.39 in East 5.7 mph 8.0 mph 89 % 0.00 in
08:40 56.0 °F 52.8 °F 30.39 in ENE 5.7 mph 9.0 mph 89 % 0.00 in
08:45 56.1 °F 53.2 °F 30.39 in ENE 6.6 mph 7.0 mph 90 % 0.00 in
08:50 56.2 °F 53.3 °F 30.39 in East 5.4 mph 9.2 mph 90 % 0.00 in
08:55 56.3 °F 53.4 °F 30.38 in East 4.7 mph 8.1 mph 90 % 0.00 in
09:00 56.3 °F 53.4 °F 30.39 in ENE 5.5 mph 9.2 mph 90 % 0.00 in
09:06 56.3 °F 53.4 °F 30.39 in ENE 6.4 mph 11.5 mph 90 % 0.00 in
09:11 56.3 °F 53.4 °F 30.39 in ENE 6.0 mph 15.0 mph 90 % 0.00 in
09:16 56.3 °F 53.4 °F 30.39 in ENE 5.0 mph 9.0 mph 90 % 0.00 in
09:21 56.4 °F 53.5 °F 30.38 in ENE 7.0 mph 12.0 mph 90 % 0.00 in
09:26 56.4 °F 53.5 °F 30.38 in ENE 7.0 mph 14.0 mph 90 % 0.00 in
09:31 56.5 °F 53.6 °F 30.38 in ENE 6.0 mph 14.0 mph 90 % 0.00 in
09:36 56.5 °F 53.6 °F 30.38 in ENE 7.0 mph 10.0 mph 90 % 0.00 in
09:41 56.7 °F 54.1 °F 30.38 in ENE 3.0 mph 10.0 mph 91 % 0.00 in
09:46 57.0 °F 54.4 °F 30.38 in ENE 3.0 mph 12.0 mph 91 % 0.00 in
09:51 57.1 °F 54.2 °F 30.38 in NE 4.8 mph 8.0 mph 90 % 0.00 in
09:56 57.2 °F 54.3 °F 30.38 in NE 3.7 mph 10.4 mph 90 % 0.00 in
10:01 57.7 °F 55.1 °F 30.38 in ENE 2.8 mph 8.1 mph 91 % 0.00 in
10:06 58.5 °F 55.9 °F 30.38 in ENE 2.0 mph 4.6 mph 91 % 0.00 in
10:11 59.0 °F 55.1 °F 30.38 in ENE 2.3 mph 4.6 mph 87 % 0.00 in
10:16 59.6 °F 55.1 °F 30.38 in ENE 2.7 mph 3.5 mph 85 % 0.00 in
10:21 60.1 °F 55.2 °F 30.39 in East 1.1 mph 3.5 mph 84 % 0.00 in
10:26 60.5 °F 54.3 °F 30.38 in ESE 1.3 mph 3.5 mph 80 % 0.00 in
10:31 60.8 °F 54.2 °F 30.39 in ENE 1.6 mph 3.5 mph 79 % 0.00 in
10:36 61.2 °F 53.9 °F 30.39 in ESE 2.5 mph 4.6 mph 77 % 0.00 in
10:41 61.5 °F 54.2 °F 30.39 in ENE 1.5 mph 3.5 mph 77 % 0.00 in
10:44 61.6 °F 54.0 °F 30.39 in ENE 1.0 mph 2.3 mph 76 % 0.00 in
10:49 61.7 °F 54.1 °F 30.39 in ENE 0.9 mph 2.3 mph 76 % 0.00 in
10:54 61.8 °F 53.8 °F 30.39 in NE 1.1 mph 3.5 mph 75 % 0.00 in
10:59 62.1 °F 54.4 °F 30.39 in ENE 1.2 mph 3.5 mph 76 % 0.00 in
11:04 62.5 °F 54.5 °F 30.39 in ENE 2.0 mph 4.6 mph 75 % 0.00 in
11:09 62.8 °F 54.8 °F 30.39 in ENE 0.9 mph 3.5 mph 75 % 0.00 in
11:14 63.1 °F 54.7 °F 30.38 in ENE 0.4 mph 2.3 mph 74 % 0.00 in
11:19 63.5 °F 55.1 °F 30.38 in ENE 1.2 mph 3.5 mph 74 % 0.00 in
11:24 64.3 °F 55.1 °F 30.38 in NE 0.5 mph 1.2 mph 72 % 0.00 in
11:29 64.9 °F 55.3 °F 30.38 in NNE 0.8 mph 2.3 mph 71 % 0.00 in
11:34 65.3 °F 55.3 °F 30.38 in NE 2.8 mph 5.0 mph 70 % 0.00 in
11:39 65.5 °F 55.5 °F 30.38 in NE 1.4 mph 3.5 mph 70 % 0.00 in
11:44 66.3 °F 56.2 °F 30.38 in ENE 3.0 mph 4.6 mph 70 % 0.00 in
11:49 67.2 °F 56.7 °F 30.37 in NE 1.6 mph 6.9 mph 69 % 0.00 in
11:54 68.1 °F 57.5 °F 30.37 in NE 2.8 mph 6.9 mph 69 % 0.00 in
11:59 68.5 °F 56.7 °F 30.37 in NE 3.7 mph 4.6 mph 66 % 0.00 in
12:04 68.8 °F 56.6 °F 30.37 in ENE 3.3 mph 7.0 mph 65 % 0.00 in
12:10 68.8 °F 56.1 °F 30.37 in East 2.8 mph 5.0 mph 64 % 0.00 in
12:15 68.7 °F 56.9 °F 30.36 in NE 3.0 mph 4.6 mph 66 % 0.00 in
12:20 69.0 °F 57.6 °F 30.36 in ENE 2.2 mph 4.6 mph 67 % 0.00 in
12:25 69.2 °F 56.9 °F 30.36 in ENE 0.3 mph 2.3 mph 65 % 0.00 in
12:30 69.5 °F 56.3 °F 30.36 in ENE 2.3 mph 3.5 mph 63 % 0.00 in
12:35 69.4 °F 55.8 °F 30.36 in NE 4.1 mph 6.9 mph 62 % 0.00 in
12:40 69.6 °F 56.9 °F 30.35 in NE 1.3 mph 2.3 mph 64 % 0.00 in
12:45 69.7 °F 55.2 °F 30.35 in ENE 2.7 mph 5.0 mph 60 % 0.00 in
12:50 69.7 °F 55.6 °F 30.35 in ENE 2.5 mph 9.2 mph 61 % 0.00 in
12:55 69.6 °F 56.9 °F 30.35 in NE 3.9 mph 8.0 mph 64 % 0.00 in
13:00 69.7 °F 57.0 °F 30.35 in ENE 2.4 mph 3.5 mph 64 % 0.00 in
13:05 69.7 °F 55.6 °F 30.35 in ENE 3.6 mph 8.1 mph 61 % 0.00 in
13:10 69.7 °F 56.1 °F 30.35 in NE 1.6 mph 3.5 mph 62 % 0.00 in
13:15 70.0 °F 57.3 °F 30.35 in ENE 2.9 mph 4.6 mph 64 % 0.00 in
13:20 70.1 °F 56.5 °F 30.34 in ENE 2.9 mph 4.0 mph 62 % 0.00 in
13:25 70.2 °F 57.0 °F 30.34 in East 3.4 mph 10.4 mph 63 % 0.00 in
13:30 70.1 °F 56.9 °F 30.34 in ENE 1.9 mph 4.6 mph 63 % 0.00 in
13:35 70.3 °F 56.7 °F 30.34 in East 2.4 mph 4.6 mph 62 % 0.00 in
13:40 70.6 °F 57.4 °F 30.34 in ENE 3.8 mph 3.8 mph 63 % 0.00 in
13:46 70.8 °F 57.6 °F 30.34 in ENE 3.4 mph 7.0 mph 63 % 0.00 in
13:51 70.6 °F 56.9 °F 30.34 in ENE 3.0 mph 8.0 mph 62 % 0.00 in
13:56 70.6 °F 56.5 °F 30.34 in ENE 3.0 mph 8.0 mph 61 % 0.00 in
14:01 70.2 °F 56.6 °F 30.34 in ENE 2.6 mph 8.1 mph 62 % 0.00 in
14:06 69.8 °F 56.2 °F 30.33 in ENE 4.5 mph 6.9 mph 62 % 0.00 in
14:11 69.4 °F 56.7 °F 30.33 in ENE 3.5 mph 6.9 mph 64 % 0.00 in
14:16 69.1 °F 56.4 °F 30.33 in ENE 3.2 mph 5.8 mph 64 % 0.00 in
14:21 68.4 °F 56.6 °F 30.33 in ENE 5.2 mph 7.0 mph 66 % 0.00 in
14:26 68.0 °F 56.6 °F 30.32 in ENE 5.5 mph 9.0 mph 67 % 0.00 in
14:31 67.9 °F 56.9 °F 30.33 in East 4.0 mph 4.6 mph 68 % 0.00 in
14:37 67.7 °F 56.8 °F 30.33 in ENE 3.3 mph 9.2 mph 68 % 0.00 in
14:42 67.4 °F 56.5 °F 30.33 in ENE 5.5 mph 11.5 mph 68 % 0.00 in
14:47 67.1 °F 57.0 °F 30.32 in ENE 4.1 mph 10.4 mph 70 % 0.00 in
14:52 66.9 °F 57.2 °F 30.32 in ENE 4.0 mph 6.9 mph 71 % 0.00 in
14:57 66.6 °F 56.9 °F 30.32 in East 3.1 mph 5.8 mph 71 % 0.00 in
15:02 66.3 °F 57.4 °F 30.32 in NE 4.0 mph 6.9 mph 73 % 0.00 in
15:07 66.1 °F 57.6 °F 30.32 in ENE 4.9 mph 8.1 mph 74 % 0.00 in
15:12 65.9 °F 57.4 °F 30.32 in East 2.1 mph 5.0 mph 74 % 0.00 in
15:17 65.7 °F 57.2 °F 30.32 in East 4.2 mph 9.2 mph 74 % 0.00 in
15:22 65.5 °F 57.4 °F 30.32 in ENE 3.1 mph 3.5 mph 75 % 0.00 in
15:27 65.4 °F 57.6 °F 30.31 in ENE 4.6 mph 7.0 mph 76 % 0.00 in
15:32 65.3 °F 57.5 °F 30.31 in ENE 3.0 mph 7.0 mph 76 % 0.00 in
15:37 65.3 °F 57.9 °F 30.31 in ENE 3.1 mph 5.8 mph 77 % 0.00 in
15:42 65.4 °F 58.0 °F 30.31 in East 2.9 mph 3.5 mph 77 % 0.00 in
15:47 65.6 °F 58.2 °F 30.31 in ENE 3.7 mph 5.8 mph 77 % 0.00 in
15:52 65.6 °F 58.2 °F 30.31 in ENE 3.4 mph 3.5 mph 77 % 0.00 in
15:57 65.5 °F 58.1 °F 30.31 in ENE 5.4 mph 10.0 mph 77 % 0.00 in
16:02 65.4 °F 58.0 °F 30.31 in East 3.7 mph 3.7 mph 77 % 0.00 in
16:08 65.3 °F 58.3 °F 30.30 in ENE 1.9 mph 3.5 mph 78 % 0.00 in
16:13 65.1 °F 58.1 °F 30.30 in ENE 2.7 mph 6.9 mph 78 % 0.00 in
16:18 64.9 °F 57.9 °F 30.30 in ENE 3.3 mph 9.2 mph 78 % 0.00 in
16:23 64.8 °F 58.1 °F 30.30 in ENE 2.2 mph 6.0 mph 79 % 0.00 in
16:28 64.8 °F 58.5 °F 30.30 in ENE 1.7 mph 3.5 mph 80 % 0.00 in
16:33 64.7 °F 58.0 °F 30.30 in East 2.6 mph 7.0 mph 79 % 0.00 in
16:38 64.7 °F 58.4 °F 30.30 in East 1.7 mph 3.5 mph 80 % 0.00 in
16:43 64.7 °F 58.7 °F 30.30 in ENE 2.0 mph 2.3 mph 81 % 0.00 in
16:48 64.7 °F 58.7 °F 30.30 in ENE 0.4 mph 1.2 mph 81 % 0.00 in
16:51 64.7 °F 58.7 °F 30.30 in ENE 1.0 mph 3.0 mph 81 % 0.00 in
16:56 64.7 °F 58.7 °F 30.30 in ENE 1.0 mph 3.0 mph 81 % 0.00 in
17:01 64.7 °F 58.7 °F 30.29 in Calm   1.2 mph 81 % 0.00 in
17:06 64.7 °F 58.4 °F 30.30 in SE 0.7 mph 3.5 mph 80 % 0.00 in
17:11 64.7 °F 58.0 °F 30.30 in SE 0.3 mph 1.2 mph 79 % 0.00 in
17:16 64.7 °F 58.0 °F 30.29 in SE 0.5 mph 3.5 mph 79 % 0.00 in
17:21 64.6 °F 57.6 °F 30.30 in SE 0.6 mph 3.5 mph 78 % 0.00 in
17:26 64.5 °F 57.8 °F 30.29 in SE 0.8 mph 3.5 mph 79 % 0.00 in
17:31 64.4 °F 57.7 °F 30.29 in Calm   3.5 mph 79 % 0.00 in
17:36 64.4 °F 57.7 °F 30.29 in SE 0.6 mph 2.0 mph 79 % 0.00 in
17:41 64.3 °F 58.0 °F 30.30 in SE 0.6 mph 2.3 mph 80 % 0.00 in
17:46 64.2 °F 57.9 °F 30.29 in SE 0.1 mph 1.2 mph 80 % 0.00 in
17:51 64.1 °F 57.8 °F 30.29 in SE 0.6 mph 2.3 mph 80 % 0.00 in
17:56 64.1 °F 57.8 °F 30.34 in SE 0.2 mph 2.3 mph 80 % 0.00 in
18:01 64.0 °F 57.7 °F 30.29 in SE 0.3 mph 2.3 mph 80 % 0.00 in
18:06 63.9 °F 58.0 °F 30.29 in SE 0.7 mph 2.3 mph 81 % 0.00 in
18:11 63.8 °F 57.9 °F 30.30 in Calm   1.2 mph 81 % 0.00 in
18:16 63.7 °F 57.8 °F 30.29 in Calm   1.2 mph 81 % 0.00 in
18:18 63.6 °F 57.7 °F 30.30 in SE 0.3 mph 1.2 mph 81 % 0.00 in
18:23 63.6 °F 57.7 °F 30.30 in SE 0.2 mph 3.5 mph 81 % 0.00 in
18:28 63.5 °F 57.6 °F 30.29 in SE 3.2 mph 4.0 mph 81 % 0.00 in
18:33 63.4 °F 57.8 °F 30.29 in SE 0.1 mph 1.2 mph 82 % 0.00 in
18:38 63.3 °F 57.7 °F 30.29 in SSE 1.3 mph 2.3 mph 82 % 0.00 in
18:44 63.2 °F 57.6 °F 30.29 in SE 0.8 mph 3.5 mph 82 % 0.00 in
18:49 63.1 °F 57.5 °F 30.29 in Calm   1.2 mph 82 % 0.00 in
18:54 63.0 °F 57.4 °F 30.29 in SE 0.2 mph 3.5 mph 82 % 0.00 in
18:59 62.9 °F 57.7 °F 30.29 in Calm   1.2 mph 83 % 0.00 in
19:04 62.8 °F 57.6 °F 30.30 in SE 0.3 mph 2.3 mph 83 % 0.00 in
19:09 62.6 °F 57.4 °F 30.29 in SE 0.2 mph 1.2 mph 83 % 0.00 in
19:14 62.5 °F 57.3 °F 30.30 in SE 0.1 mph 1.2 mph 83 % 0.00 in
19:19 62.4 °F 57.2 °F 30.29 in Calm   1.2 mph 83 % 0.00 in
19:24 62.3 °F 57.1 °F 30.29 in SSE 1.9 mph 4.6 mph 83 % 0.00 in
19:29 62.3 °F 57.4 °F 30.29 in Calm     84 % 0.00 in
19:34 62.2 °F 57.3 °F 30.29 in SSE 1.8 mph 3.5 mph 84 % 0.00 in
19:39 62.1 °F 57.2 °F 30.29 in SE 0.4 mph 1.2 mph 84 % 0.00 in
19:44 62.0 °F 57.1 °F 30.28 in SE 0.2 mph 1.2 mph 84 % 0.00 in
19:49 61.9 °F 57.0 °F 30.28 in SE 2.0 mph 3.0 mph 84 % 0.00 in
19:54 61.8 °F 57.2 °F 30.28 in SE 0.6 mph 1.2 mph 85 % 0.00 in
20:00 61.7 °F 57.1 °F 30.28 in SE 0.1 mph 2.3 mph 85 % 0.00 in
20:05 61.7 °F 57.1 °F 30.28 in SE 0.8 mph 1.2 mph 85 % 0.00 in
20:10 61.6 °F 57.0 °F 30.28 in Calm   1.0 mph 85 % 0.00 in
20:15 61.6 °F 57.0 °F 30.28 in Calm     85 % 0.00 in
20:20 61.5 °F 56.9 °F 30.28 in Calm   2.3 mph 85 % 0.00 in
20:25 61.4 °F 57.2 °F 30.28 in Calm   1.2 mph 86 % 0.00 in
20:30 61.4 °F 57.2 °F 30.28 in SE 0.1 mph 1.2 mph 86 % 0.00 in
20:35 61.4 °F 57.5 °F 30.28 in SE 0.1 mph 2.3 mph 87 % 0.00 in
20:40 61.3 °F 57.4 °F 30.28 in Calm     87 % 0.00 in
20:45 61.3 °F 57.4 °F 30.29 in SE 0.2 mph   87 % 0.00 in
20:50 61.3 °F 57.4 °F 30.29 in Calm     87 % 0.00 in
20:55 61.3 °F 57.7 °F 30.28 in SE 0.1 mph 1.2 mph 88 % 0.00 in
21:00 61.3 °F 57.7 °F 30.29 in SE 0.1 mph   88 % 0.00 in
21:05 61.2 °F 57.6 °F 30.28 in Calm     88 % 0.00 in
21:10 61.2 °F 57.6 °F 30.29 in SE 0.8 mph 3.5 mph 88 % 0.00 in
21:15 61.2 °F 57.6 °F 30.30 in Calm     88 % 0.00 in
21:20 61.2 °F 57.6 °F 30.29 in Calm     88 % 0.00 in
21:25 61.2 °F 57.6 °F 30.29 in SE 0.2 mph 1.2 mph 88 % 0.00 in
21:31 61.2 °F 57.9 °F 30.28 in Calm     89 % 0.00 in
21:33 61.2 °F 57.9 °F 30.29 in Calm     89 % 0.00 in
21:38 61.2 °F 57.9 °F 30.29 in Calm   1.2 mph 89 % 0.00 in
21:43 61.2 °F 57.9 °F 30.28 in Calm   1.0 mph 89 % 0.00 in
21:48 61.2 °F 57.9 °F 30.28 in SE 0.5 mph 2.3 mph 89 % 0.00 in
21:53 61.2 °F 57.9 °F 30.27 in Calm   1.2 mph 89 % 0.00 in
21:58 61.2 °F 57.9 °F 30.27 in SE 0.1 mph 1.2 mph 89 % 0.00 in
22:03 61.2 °F 57.9 °F 30.27 in Calm     89 % 0.00 in
22:08 61.2 °F 57.9 °F 30.27 in Calm     89 % 0.00 in
22:13 61.2 °F 57.9 °F 30.27 in SE 0.2 mph   89 % 0.00 in
22:18 61.1 °F 57.8 °F 30.27 in Calm   1.2 mph 89 % 0.00 in
22:23 61.1 °F 57.8 °F 30.27 in Calm     89 % 0.00 in
22:28 61.1 °F 57.8 °F 30.27 in Calm     89 % 0.00 in
22:33 61.1 °F 57.8 °F 30.26 in Calm     89 % 0.00 in
22:39 61.1 °F 58.1 °F 30.26 in Calm     90 % 0.00 in
22:44 61.1 °F 58.1 °F 30.26 in Calm     90 % 0.00 in
22:49 61.1 °F 58.1 °F 30.26 in Calm     90 % 0.00 in
22:54 61.1 °F 58.1 °F 30.26 in Calm     90 % 0.00 in
22:59 61.1 °F 58.1 °F 30.25 in Calm   1.2 mph 90 % 0.00 in
23:04 61.1 °F 58.1 °F 30.25 in Calm     90 % 0.00 in
23:09 61.1 °F 58.1 °F 30.25 in Calm   1.2 mph 90 % 0.00 in
23:14 61.1 °F 58.5 °F 30.25 in Calm     91 % 0.00 in
23:20 61.1 °F 58.5 °F 30.25 in Calm     91 % 0.00 in
23:25 61.2 °F 58.6 °F 30.25 in Calm     91 % 0.00 in
23:30 61.2 °F 58.6 °F 30.25 in Calm   1.2 mph 91 % 0.00 in
23:35 61.3 °F 58.7 °F 30.26 in Calm     91 % 0.00 in
23:40 61.3 °F 58.7 °F 30.25 in Calm     91 % 0.00 in
23:44 61.3 °F 58.7 °F 30.25 in Calm   1.2 mph 91 % 0.00 in
23:49 61.4 °F 58.7 °F 30.26 in Calm     91 % 0.00 in
23:54 61.4 °F 59.1 °F 30.26 in Calm     92 % 0.00 in
23:59 61.5 °F 59.2 °F 30.25 in Calm   1.2 mph 92 % 0.00 in
Crab Meadow Weather
Compliments of Weather Underground - 3 mb

Script developed by  Jim McMurry - jmcmurry@mwt.net Adapted for the template by  Wim van der Kuil - Leuven-Template.eu

Weather Terms: Enhanced Fujita Scale or EF-Scale - A scale of wind damage intensity in which wind speeds are inferred from analysis of wind damage. All tornadoes and most other windstorms are assigned a numerical rating from this scale according to the most intense damage caused by the storm. EF0 (weak) 6585 mph, light damage EF1 (weak) 86110 mph, moderate damage EF2 (strong) 111135 mph, considerable damage EF3 (strong) 136165 mph, severe damage EF4 (violent) 166200 mph, devastating damage EF5 (violent) >200 mph, incredible damage.